sensor_id;sensor_type;location;lat;lon;timestamp;P1;durP1;ratioP1;P2;durP2;ratioP2
7965;SDS011;4028;43.272;26.932;2022-09-14T00:00:46;4.07;;;2.30;;
7965;SDS011;4028;43.272;26.932;2022-09-14T00:03:12;3.47;;;2.20;;
7965;SDS011;4028;43.272;26.932;2022-09-14T00:05:39;3.07;;;2.30;;
7965;SDS011;4028;43.272;26.932;2022-09-14T00:08:05;2.83;;;2.37;;
7965;SDS011;4028;43.272;26.932;2022-09-14T00:10:30;3.93;;;2.20;;
7965;SDS011;4028;43.272;26.932;2022-09-14T00:12:56;3.67;;;2.27;;
7965;SDS011;4028;43.272;26.932;2022-09-14T00:15:22;2.47;;;2.27;;
7965;SDS011;4028;43.272;26.932;2022-09-14T00:17:47;3.03;;;2.07;;
7965;SDS011;4028;43.272;26.932;2022-09-14T00:20:13;4.60;;;2.27;;
7965;SDS011;4028;43.272;26.932;2022-09-14T00:22:38;2.33;;;2.13;;
7965;SDS011;4028;43.272;26.932;2022-09-14T00:25:04;2.23;;;2.03;;
7965;SDS011;4028;43.272;26.932;2022-09-14T00:27:30;2.20;;;2.10;;
7965;SDS011;4028;43.272;26.932;2022-09-14T00:29:56;2.87;;;2.43;;
7965;SDS011;4028;43.272;26.932;2022-09-14T00:32:22;3.37;;;2.10;;
7965;SDS011;4028;43.272;26.932;2022-09-14T00:34:47;2.40;;;2.20;;
7965;SDS011;4028;43.272;26.932;2022-09-14T00:37:13;5.23;;;2.30;;
7965;SDS011;4028;43.272;26.932;2022-09-14T00:39:38;4.17;;;2.60;;
7965;SDS011;4028;43.272;26.932;2022-09-14T00:42:04;4.47;;;2.50;;
7965;SDS011;4028;43.272;26.932;2022-09-14T00:46:58;3.53;;;2.23;;
7965;SDS011;4028;43.272;26.932;2022-09-14T00:49:26;3.37;;;2.30;;
7965;SDS011;4028;43.272;26.932;2022-09-14T00:54:47;2.87;;;2.27;;
7965;SDS011;4028;43.272;26.932;2022-09-14T00:57:16;2.13;;;1.90;;
7965;SDS011;4028;43.272;26.932;2022-09-14T00:59:43;4.07;;;2.30;;
7965;SDS011;4028;43.272;26.932;2022-09-14T01:02:11;2.93;;;2.47;;
7965;SDS011;4028;43.272;26.932;2022-09-14T01:04:41;2.40;;;2.20;;
7965;SDS011;4028;43.272;26.932;2022-09-14T01:10:03;5.27;;;2.57;;
7965;SDS011;4028;43.272;26.932;2022-09-14T01:20:59;2.43;;;2.23;;
7965;SDS011;4028;43.272;26.932;2022-09-14T01:36:54;2.83;;;2.40;;
7965;SDS011;4028;43.272;26.932;2022-09-14T01:39:25;6.43;;;2.93;;
7965;SDS011;4028;43.272;26.932;2022-09-14T01:41:54;4.47;;;2.77;;
7965;SDS011;4028;43.272;26.932;2022-09-14T01:44:21;3.00;;;2.67;;
7965;SDS011;4028;43.272;26.932;2022-09-14T01:47:04;2.63;;;2.43;;
7965;SDS011;4028;43.272;26.932;2022-09-14T01:49:41;3.50;;;2.43;;
7965;SDS011;4028;43.272;26.932;2022-09-14T01:52:15;3.80;;;2.50;;
7965;SDS011;4028;43.272;26.932;2022-09-14T01:54:50;3.70;;;2.73;;
7965;SDS011;4028;43.272;26.932;2022-09-14T01:57:22;3.10;;;2.80;;
7965;SDS011;4028;43.272;26.932;2022-09-14T01:59:52;3.10;;;2.67;;
7965;SDS011;4028;43.272;26.932;2022-09-14T02:07:29;3.37;;;2.83;;
7965;SDS011;4028;43.272;26.932;2022-09-14T02:09:55;5.63;;;3.20;;
7965;SDS011;4028;43.272;26.932;2022-09-14T02:12:21;8.97;;;3.07;;
7965;SDS011;4028;43.272;26.932;2022-09-14T02:14:47;6.20;;;3.33;;
7965;SDS011;4028;43.272;26.932;2022-09-14T02:17:15;4.93;;;3.00;;
7965;SDS011;4028;43.272;26.932;2022-09-14T02:19:46;3.53;;;3.20;;
7965;SDS011;4028;43.272;26.932;2022-09-14T02:22:16;4.53;;;3.50;;
7965;SDS011;4028;43.272;26.932;2022-09-14T02:24:41;3.50;;;3.20;;
7965;SDS011;4028;43.272;26.932;2022-09-14T02:27:07;3.43;;;3.13;;
7965;SDS011;4028;43.272;26.932;2022-09-14T02:29:32;3.93;;;2.60;;
7965;SDS011;4028;43.272;26.932;2022-09-14T02:37:31;5.87;;;3.50;;
7965;SDS011;4028;43.272;26.932;2022-09-14T02:48:47;3.00;;;2.80;;
7965;SDS011;4028;43.272;26.932;2022-09-14T02:51:26;5.27;;;2.90;;
7965;SDS011;4028;43.272;26.932;2022-09-14T02:54:10;7.97;;;2.90;;
7965;SDS011;4028;43.272;26.932;2022-09-14T02:56:40;3.40;;;3.10;;
7965;SDS011;4028;43.272;26.932;2022-09-14T02:59:06;4.77;;;3.17;;
7965;SDS011;4028;43.272;26.932;2022-09-14T03:01:32;3.60;;;3.30;;
7965;SDS011;4028;43.272;26.932;2022-09-14T03:03:58;3.37;;;3.07;;
7965;SDS011;4028;43.272;26.932;2022-09-14T03:06:23;3.53;;;2.90;;
7965;SDS011;4028;43.272;26.932;2022-09-14T03:08:49;6.87;;;3.40;;
7965;SDS011;4028;43.272;26.932;2022-09-14T03:11:14;4.90;;;3.20;;
7965;SDS011;4028;43.272;26.932;2022-09-14T03:13:40;3.73;;;3.13;;
7965;SDS011;4028;43.272;26.932;2022-09-14T03:16:10;3.63;;;3.30;;
7965;SDS011;4028;43.272;26.932;2022-09-14T03:18:37;7.27;;;3.07;;
7965;SDS011;4028;43.272;26.932;2022-09-14T03:21:07;8.43;;;2.97;;
7965;SDS011;4028;43.272;26.932;2022-09-14T03:23:35;5.87;;;2.93;;
7965;SDS011;4028;43.272;26.932;2022-09-14T03:26:05;3.30;;;3.00;;
7965;SDS011;4028;43.272;26.932;2022-09-14T03:28:32;6.40;;;3.60;;
7965;SDS011;4028;43.272;26.932;2022-09-14T03:30:59;4.63;;;2.83;;
7965;SDS011;4028;43.272;26.932;2022-09-14T03:33:26;5.07;;;3.43;;
7965;SDS011;4028;43.272;26.932;2022-09-14T03:35:51;7.07;;;3.37;;
7965;SDS011;4028;43.272;26.932;2022-09-14T03:38:16;4.87;;;3.43;;
7965;SDS011;4028;43.272;26.932;2022-09-14T03:40:43;3.57;;;3.10;;
7965;SDS011;4028;43.272;26.932;2022-09-14T03:43:08;6.90;;;3.90;;
7965;SDS011;4028;43.272;26.932;2022-09-14T03:45:36;5.07;;;3.30;;
7965;SDS011;4028;43.272;26.932;2022-09-14T03:48:02;5.90;;;3.40;;
7965;SDS011;4028;43.272;26.932;2022-09-14T03:50:27;5.23;;;3.40;;
7965;SDS011;4028;43.272;26.932;2022-09-14T03:52:53;5.10;;;3.70;;
7965;SDS011;4028;43.272;26.932;2022-09-14T03:55:18;7.17;;;3.27;;
7965;SDS011;4028;43.272;26.932;2022-09-14T03:57:44;5.17;;;3.50;;
7965;SDS011;4028;43.272;26.932;2022-09-14T04:00:09;5.10;;;3.73;;
7965;SDS011;4028;43.272;26.932;2022-09-14T04:02:35;6.80;;;4.07;;
7965;SDS011;4028;43.272;26.932;2022-09-14T04:05:01;3.80;;;3.47;;
7965;SDS011;4028;43.272;26.932;2022-09-14T04:07:27;4.43;;;4.00;;
7965;SDS011;4028;43.272;26.932;2022-09-14T04:09:52;11.27;;;4.47;;
7965;SDS011;4028;43.272;26.932;2022-09-14T04:12:17;6.03;;;3.60;;
7965;SDS011;4028;43.272;26.932;2022-09-14T04:14:43;4.50;;;3.37;;
7965;SDS011;4028;43.272;26.932;2022-09-14T04:17:08;8.00;;;3.53;;
7965;SDS011;4028;43.272;26.932;2022-09-14T04:19:34;5.33;;;3.70;;
7965;SDS011;4028;43.272;26.932;2022-09-14T04:22:01;7.13;;;3.73;;
7965;SDS011;4028;43.272;26.932;2022-09-14T04:24:28;4.10;;;3.70;;
7965;SDS011;4028;43.272;26.932;2022-09-14T04:26:53;7.73;;;3.87;;
7965;SDS011;4028;43.272;26.932;2022-09-14T04:29:19;5.60;;;3.90;;
7965;SDS011;4028;43.272;26.932;2022-09-14T04:31:44;4.53;;;3.97;;
7965;SDS011;4028;43.272;26.932;2022-09-14T04:34:11;5.40;;;4.20;;
7965;SDS011;4028;43.272;26.932;2022-09-14T04:36:37;4.10;;;3.70;;
7965;SDS011;4028;43.272;26.932;2022-09-14T04:39:03;5.10;;;4.60;;
7965;SDS011;4028;43.272;26.932;2022-09-14T04:41:29;6.60;;;4.30;;
7965;SDS011;4028;43.272;26.932;2022-09-14T04:43:55;9.20;;;4.73;;
7965;SDS011;4028;43.272;26.932;2022-09-14T04:46:23;5.87;;;4.40;;
7965;SDS011;4028;43.272;26.932;2022-09-14T04:48:54;6.53;;;4.43;;
7965;SDS011;4028;43.272;26.932;2022-09-14T04:51:20;6.33;;;4.70;;
7965;SDS011;4028;43.272;26.932;2022-09-14T04:53:49;5.07;;;4.67;;
7965;SDS011;4028;43.272;26.932;2022-09-14T04:56:16;9.00;;;5.10;;
7965;SDS011;4028;43.272;26.932;2022-09-14T04:58:47;6.50;;;3.90;;
7965;SDS011;4028;43.272;26.932;2022-09-14T05:01:18;5.77;;;4.50;;
7965;SDS011;4028;43.272;26.932;2022-09-14T05:03:45;9.73;;;4.47;;
7965;SDS011;4028;43.272;26.932;2022-09-14T05:06:11;4.80;;;4.40;;
7965;SDS011;4028;43.272;26.932;2022-09-14T05:08:47;9.13;;;3.90;;
7965;SDS011;4028;43.272;26.932;2022-09-14T05:11:14;7.97;;;4.53;;
7965;SDS011;4028;43.272;26.932;2022-09-14T05:13:41;10.50;;;4.50;;
7965;SDS011;4028;43.272;26.932;2022-09-14T05:16:13;5.60;;;4.53;;
7965;SDS011;4028;43.272;26.932;2022-09-14T05:18:41;5.40;;;4.07;;
7965;SDS011;4028;43.272;26.932;2022-09-14T05:21:08;4.37;;;3.97;;
7965;SDS011;4028;43.272;26.932;2022-09-14T05:23:35;8.53;;;4.20;;
7965;SDS011;4028;43.272;26.932;2022-09-14T05:26:01;10.27;;;5.07;;
7965;SDS011;4028;43.272;26.932;2022-09-14T05:28:28;7.10;;;4.43;;
7965;SDS011;4028;43.272;26.932;2022-09-14T05:30:53;4.53;;;4.10;;
7965;SDS011;4028;43.272;26.932;2022-09-14T05:33:19;5.77;;;4.20;;
7965;SDS011;4028;43.272;26.932;2022-09-14T05:35:46;7.27;;;4.60;;
7965;SDS011;4028;43.272;26.932;2022-09-14T05:38:12;9.37;;;4.83;;
7965;SDS011;4028;43.272;26.932;2022-09-14T05:40:38;5.60;;;4.67;;
7965;SDS011;4028;43.272;26.932;2022-09-14T05:43:03;8.60;;;4.97;;
7965;SDS011;4028;43.272;26.932;2022-09-14T05:45:29;11.43;;;4.20;;
7965;SDS011;4028;43.272;26.932;2022-09-14T05:47:58;6.60;;;4.07;;
7965;SDS011;4028;43.272;26.932;2022-09-14T05:50:25;9.70;;;4.23;;
7965;SDS011;4028;43.272;26.932;2022-09-14T05:52:51;6.93;;;4.53;;
7965;SDS011;4028;43.272;26.932;2022-09-14T05:55:16;7.13;;;4.30;;
7965;SDS011;4028;43.272;26.932;2022-09-14T05:57:42;5.97;;;3.80;;
7965;SDS011;4028;43.272;26.932;2022-09-14T06:00:07;6.93;;;3.90;;
7965;SDS011;4028;43.272;26.932;2022-09-14T06:02:33;7.70;;;4.23;;
7965;SDS011;4028;43.272;26.932;2022-09-14T06:04:59;6.37;;;3.80;;
7965;SDS011;4028;43.272;26.932;2022-09-14T06:07:24;9.30;;;4.10;;
7965;SDS011;4028;43.272;26.932;2022-09-14T06:09:50;8.30;;;3.63;;
7965;SDS011;4028;43.272;26.932;2022-09-14T06:12:15;7.90;;;3.83;;
7965;SDS011;4028;43.272;26.932;2022-09-14T06:14:41;9.25;;;4.57;;
7965;SDS011;4028;43.272;26.932;2022-09-14T06:17:06;8.75;;;4.25;;
7965;SDS011;4028;43.272;26.932;2022-09-14T06:19:32;4.85;;;3.72;;
7965;SDS011;4028;43.272;26.932;2022-09-14T06:21:57;6.40;;;3.72;;
7965;SDS011;4028;43.272;26.932;2022-09-14T06:24:23;8.73;;;4.53;;
7965;SDS011;4028;43.272;26.932;2022-09-14T06:26:49;8.65;;;4.82;;
7965;SDS011;4028;43.272;26.932;2022-09-14T06:29:14;11.02;;;4.10;;
7965;SDS011;4028;43.272;26.932;2022-09-14T06:31:39;12.60;;;4.50;;
7965;SDS011;4028;43.272;26.932;2022-09-14T06:34:05;5.95;;;3.85;;
7965;SDS011;4028;43.272;26.932;2022-09-14T06:36:31;11.07;;;4.15;;
7965;SDS011;4028;43.272;26.932;2022-09-14T06:38:58;4.38;;;3.08;;
7965;SDS011;4028;43.272;26.932;2022-09-14T06:41:25;8.55;;;3.15;;
7965;SDS011;4028;43.272;26.932;2022-09-14T06:43:57;5.45;;;3.28;;
7965;SDS011;4028;43.272;26.932;2022-09-14T06:46:26;8.32;;;3.00;;
7965;SDS011;4028;43.272;26.932;2022-09-14T06:51:28;6.43;;;2.63;;
7965;SDS011;4028;43.272;26.932;2022-09-14T06:53:56;3.13;;;2.35;;
7965;SDS011;4028;43.272;26.932;2022-09-14T06:56:26;4.80;;;3.35;;
7965;SDS011;4028;43.272;26.932;2022-09-14T06:58:56;3.30;;;2.85;;
7965;SDS011;4028;43.272;26.932;2022-09-14T07:01:22;4.35;;;2.45;;
7965;SDS011;4028;43.272;26.932;2022-09-14T07:03:50;3.05;;;2.33;;
7965;SDS011;4028;43.272;26.932;2022-09-14T07:06:17;2.30;;;2.10;;
7965;SDS011;4028;43.272;26.932;2022-09-14T07:08:54;2.28;;;2.00;;
7965;SDS011;4028;43.272;26.932;2022-09-14T07:11:21;2.05;;;1.90;;
7965;SDS011;4028;43.272;26.932;2022-09-14T07:13:49;2.60;;;2.40;;
7965;SDS011;4028;43.272;26.932;2022-09-14T07:16:16;3.83;;;2.10;;
7965;SDS011;4028;43.272;26.932;2022-09-14T07:18:41;2.97;;;2.10;;
7965;SDS011;4028;43.272;26.932;2022-09-14T07:21:08;5.53;;;2.30;;
7965;SDS011;4028;43.272;26.932;2022-09-14T07:23:40;2.47;;;2.35;;
7965;SDS011;4028;43.272;26.932;2022-09-14T07:26:17;2.80;;;2.20;;
7965;SDS011;4028;43.272;26.932;2022-09-14T07:28:48;6.95;;;2.40;;
7965;SDS011;4028;43.272;26.932;2022-09-14T07:31:25;2.50;;;2.28;;
7965;SDS011;4028;43.272;26.932;2022-09-14T07:33:53;2.58;;;2.38;;
7965;SDS011;4028;43.272;26.932;2022-09-14T07:36:20;2.45;;;2.25;;
7965;SDS011;4028;43.272;26.932;2022-09-14T07:38:47;2.47;;;2.20;;
7965;SDS011;4028;43.272;26.932;2022-09-14T07:41:13;2.92;;;2.35;;
7965;SDS011;4028;43.272;26.932;2022-09-14T07:43:38;2.30;;;2.20;;
7965;SDS011;4028;43.272;26.932;2022-09-14T07:46:04;3.10;;;2.20;;
7965;SDS011;4028;43.272;26.932;2022-09-14T07:48:30;2.50;;;2.30;;
7965;SDS011;4028;43.272;26.932;2022-09-14T07:50:58;5.63;;;2.80;;
7965;SDS011;4028;43.272;26.932;2022-09-14T07:53:35;4.10;;;2.53;;
7965;SDS011;4028;43.272;26.932;2022-09-14T07:56:03;2.65;;;2.38;;
7965;SDS011;4028;43.272;26.932;2022-09-14T07:58:29;2.42;;;2.17;;
7965;SDS011;4028;43.272;26.932;2022-09-14T08:00:59;6.13;;;2.70;;
7965;SDS011;4028;43.272;26.932;2022-09-14T08:03:26;3.38;;;2.60;;
7965;SDS011;4028;43.272;26.932;2022-09-14T08:05:56;3.10;;;2.40;;
7965;SDS011;4028;43.272;26.932;2022-09-14T08:08:29;4.03;;;2.42;;
7965;SDS011;4028;43.272;26.932;2022-09-14T08:11:03;4.90;;;2.45;;
7965;SDS011;4028;43.272;26.932;2022-09-14T08:13:30;3.13;;;2.28;;
7965;SDS011;4028;43.272;26.932;2022-09-14T08:15:56;2.50;;;2.30;;
7965;SDS011;4028;43.272;26.932;2022-09-14T08:18:25;3.28;;;2.40;;
7965;SDS011;4028;43.272;26.932;2022-09-14T08:20:51;5.75;;;2.20;;
7965;SDS011;4028;43.272;26.932;2022-09-14T08:23:17;3.53;;;2.13;;
7965;SDS011;4028;43.272;26.932;2022-09-14T08:25:43;2.20;;;2.00;;
7965;SDS011;4028;43.272;26.932;2022-09-14T08:28:08;4.32;;;2.30;;
7965;SDS011;4028;43.272;26.932;2022-09-14T08:30:33;3.92;;;2.45;;
7965;SDS011;4028;43.272;26.932;2022-09-14T08:32:59;3.20;;;2.97;;
7965;SDS011;4028;43.272;26.932;2022-09-14T08:35:24;5.50;;;3.90;;
7965;SDS011;4028;43.272;26.932;2022-09-14T08:37:50;3.47;;;2.78;;
7965;SDS011;4028;43.272;26.932;2022-09-14T08:40:15;4.53;;;3.20;;
7965;SDS011;4028;43.272;26.932;2022-09-14T08:42:42;4.40;;;2.85;;
7965;SDS011;4028;43.272;26.932;2022-09-14T08:45:09;3.85;;;2.70;;
7965;SDS011;4028;43.272;26.932;2022-09-14T08:47:39;2.85;;;2.60;;
7965;SDS011;4028;43.272;26.932;2022-09-14T08:52:38;4.38;;;2.38;;
7965;SDS011;4028;43.272;26.932;2022-09-14T08:57:42;3.63;;;2.10;;
7965;SDS011;4028;43.272;26.932;2022-09-14T09:00:16;2.55;;;2.03;;
7965;SDS011;4028;43.272;26.932;2022-09-14T09:05:44;2.90;;;2.15;;
7965;SDS011;4028;43.272;26.932;2022-09-14T09:10:57;4.65;;;2.90;;
7965;SDS011;4028;43.272;26.932;2022-09-14T09:13:43;2.80;;;2.50;;
7965;SDS011;4028;43.272;26.932;2022-09-14T09:16:11;7.90;;;2.65;;
7965;SDS011;4028;43.272;26.932;2022-09-14T09:18:53;3.42;;;2.10;;
7965;SDS011;4028;43.272;26.932;2022-09-14T09:21:26;5.47;;;2.08;;
7965;SDS011;4028;43.272;26.932;2022-09-14T09:24:35;2.35;;;2.10;;
7965;SDS011;4028;43.272;26.932;2022-09-14T09:27:11;2.92;;;2.30;;
7965;SDS011;4028;43.272;26.932;2022-09-14T09:29:38;2.22;;;2.03;;
7965;SDS011;4028;43.272;26.932;2022-09-14T09:32:04;3.42;;;2.10;;
7965;SDS011;4028;43.272;26.932;2022-09-14T09:34:35;2.28;;;2.10;;
7965;SDS011;4028;43.272;26.932;2022-09-14T09:37:00;2.53;;;2.33;;
7965;SDS011;4028;43.272;26.932;2022-09-14T09:39:28;4.53;;;1.80;;
7965;SDS011;4028;43.272;26.932;2022-09-14T09:42:41;3.03;;;2.13;;
7965;SDS011;4028;43.272;26.932;2022-09-14T09:44:57;3.55;;;2.22;;
7965;SDS011;4028;43.272;26.932;2022-09-14T09:50:03;2.38;;;2.17;;
7965;SDS011;4028;43.272;26.932;2022-09-14T09:52:38;3.92;;;2.05;;
7965;SDS011;4028;43.272;26.932;2022-09-14T09:55:20;2.40;;;2.20;;
7965;SDS011;4028;43.272;26.932;2022-09-14T09:57:50;2.15;;;2.05;;
7965;SDS011;4028;43.272;26.932;2022-09-14T10:00:25;3.05;;;2.17;;
7965;SDS011;4028;43.272;26.932;2022-09-14T10:02:52;2.90;;;2.25;;
7965;SDS011;4028;43.272;26.932;2022-09-14T10:05:26;4.10;;;2.38;;
7965;SDS011;4028;43.272;26.932;2022-09-14T10:07:58;2.95;;;2.35;;
7965;SDS011;4028;43.272;26.932;2022-09-14T10:13:04;3.80;;;2.20;;
7965;SDS011;4028;43.272;26.932;2022-09-14T10:15:32;4.82;;;2.10;;
7965;SDS011;4028;43.272;26.932;2022-09-14T10:25:44;1.80;;;1.70;;
7965;SDS011;4028;43.272;26.932;2022-09-14T10:28:29;1.95;;;1.85;;
7965;SDS011;4028;43.272;26.932;2022-09-14T10:33:36;2.17;;;1.95;;
7965;SDS011;4028;43.272;26.932;2022-09-14T10:38:47;3.50;;;2.20;;
7965;SDS011;4028;43.272;26.932;2022-09-14T10:41:37;3.08;;;2.40;;
7965;SDS011;4028;43.272;26.932;2022-09-14T11:03:29;4.15;;;1.80;;
7965;SDS011;4028;43.272;26.932;2022-09-14T11:11:37;2.03;;;1.83;;
7965;SDS011;4028;43.272;26.932;2022-09-14T11:14:09;2.00;;;1.90;;
7965;SDS011;4028;43.272;26.932;2022-09-14T11:21:56;2.85;;;1.60;;
7965;SDS011;4028;43.272;26.932;2022-09-14T11:27:46;1.85;;;1.70;;
7965;SDS011;4028;43.272;26.932;2022-09-14T11:30:23;4.35;;;2.03;;
7965;SDS011;4028;43.272;26.932;2022-09-14T11:38:51;2.20;;;1.77;;
7965;SDS011;4028;43.272;26.932;2022-09-14T11:41:23;1.80;;;1.70;;
7965;SDS011;4028;43.272;26.932;2022-09-14T11:44:11;3.17;;;1.73;;
7965;SDS011;4028;43.272;26.932;2022-09-14T11:46:52;1.70;;;1.60;;
7965;SDS011;4028;43.272;26.932;2022-09-14T11:49:27;1.70;;;1.60;;
7965;SDS011;4028;43.272;26.932;2022-09-14T11:52:10;1.77;;;1.67;;
7965;SDS011;4028;43.272;26.932;2022-09-14T11:54:41;3.53;;;2.05;;
7965;SDS011;4028;43.272;26.932;2022-09-14T11:57:11;2.25;;;1.85;;
7965;SDS011;4028;43.272;26.932;2022-09-14T12:12:49;1.63;;;1.52;;
7965;SDS011;4028;43.272;26.932;2022-09-14T12:20:41;1.85;;;1.75;;
7965;SDS011;4028;43.272;26.932;2022-09-14T12:40:58;4.35;;;1.73;;
7965;SDS011;4028;43.272;26.932;2022-09-14T12:46:09;3.88;;;2.20;;
7965;SDS011;4028;43.272;26.932;2022-09-14T12:48:59;4.45;;;1.50;;
7965;SDS011;4028;43.272;26.932;2022-09-14T13:04:35;4.20;;;1.67;;
7965;SDS011;4028;43.272;26.932;2022-09-14T13:07:04;2.75;;;1.52;;
7965;SDS011;4028;43.272;26.932;2022-09-14T13:09:37;2.15;;;2.05;;
7965;SDS011;4028;43.272;26.932;2022-09-14T13:12:09;2.45;;;1.90;;
7965;SDS011;4028;43.272;26.932;2022-09-14T13:14:43;5.18;;;2.55;;
7965;SDS011;4028;43.272;26.932;2022-09-14T13:17:12;2.13;;;1.70;;
7965;SDS011;4028;43.272;26.932;2022-09-14T13:19:39;6.07;;;2.08;;
7965;SDS011;4028;43.272;26.932;2022-09-14T13:22:15;4.05;;;1.60;;
7965;SDS011;4028;43.272;26.932;2022-09-14T13:24:46;1.77;;;1.67;;
7965;SDS011;4028;43.272;26.932;2022-09-14T13:27:34;2.28;;;1.50;;
7965;SDS011;4028;43.272;26.932;2022-09-14T13:32:30;3.03;;;1.60;;
7965;SDS011;4028;43.272;26.932;2022-09-14T13:34:58;3.58;;;1.92;;
7965;SDS011;4028;43.272;26.932;2022-09-14T13:37:28;3.70;;;1.50;;
7965;SDS011;4028;43.272;26.932;2022-09-14T13:39:55;2.72;;;1.75;;
7965;SDS011;4028;43.272;26.932;2022-09-14T13:42:22;2.45;;;1.60;;
7965;SDS011;4028;43.272;26.932;2022-09-14T13:44:49;2.25;;;2.00;;
7965;SDS011;4028;43.272;26.932;2022-09-14T13:47:20;2.72;;;1.92;;
7965;SDS011;4028;43.272;26.932;2022-09-14T13:49:48;3.72;;;2.00;;
7965;SDS011;4028;43.272;26.932;2022-09-14T13:52:25;1.73;;;1.58;;
7965;SDS011;4028;43.272;26.932;2022-09-14T13:57:21;1.70;;;1.60;;
7965;SDS011;4028;43.272;26.932;2022-09-14T14:00:04;1.90;;;1.70;;
7965;SDS011;4028;43.272;26.932;2022-09-14T14:02:48;1.73;;;1.60;;
7965;SDS011;4028;43.272;26.932;2022-09-14T14:07:45;4.07;;;2.20;;
7965;SDS011;4028;43.272;26.932;2022-09-14T14:10:21;1.88;;;1.60;;
7965;SDS011;4028;43.272;26.932;2022-09-14T14:12:49;2.42;;;1.70;;
7965;SDS011;4028;43.272;26.932;2022-09-14T14:17:41;3.10;;;1.80;;
7965;SDS011;4028;43.272;26.932;2022-09-14T14:28:04;4.40;;;1.75;;
7965;SDS011;4028;43.272;26.932;2022-09-14T14:30:37;1.80;;;1.70;;
7965;SDS011;4028;43.272;26.932;2022-09-14T14:33:08;2.45;;;1.70;;
7965;SDS011;4028;43.272;26.932;2022-09-14T14:35:36;2.35;;;1.80;;
7965;SDS011;4028;43.272;26.932;2022-09-14T14:38:01;1.88;;;1.70;;
7965;SDS011;4028;43.272;26.932;2022-09-14T14:40:27;2.15;;;1.90;;
7965;SDS011;4028;43.272;26.932;2022-09-14T14:42:52;2.22;;;2.00;;
7965;SDS011;4028;43.272;26.932;2022-09-14T14:45:22;2.80;;;2.15;;
7965;SDS011;4028;43.272;26.932;2022-09-14T14:47:50;4.10;;;1.92;;
7965;SDS011;4028;43.272;26.932;2022-09-14T14:50:18;1.77;;;1.67;;
7965;SDS011;4028;43.272;26.932;2022-09-14T14:52:48;3.42;;;2.30;;
7965;SDS011;4028;43.272;26.932;2022-09-14T14:55:15;3.35;;;2.05;;
7965;SDS011;4028;43.272;26.932;2022-09-14T14:57:41;5.13;;;1.90;;
7965;SDS011;4028;43.272;26.932;2022-09-14T15:00:17;2.10;;;1.90;;
7965;SDS011;4028;43.272;26.932;2022-09-14T15:02:45;3.78;;;1.95;;
7965;SDS011;4028;43.272;26.932;2022-09-14T15:05:11;5.07;;;1.67;;
7965;SDS011;4028;43.272;26.932;2022-09-14T15:07:37;2.85;;;2.38;;
7965;SDS011;4028;43.272;26.932;2022-09-14T15:10:03;5.85;;;2.50;;
7965;SDS011;4028;43.272;26.932;2022-09-14T15:12:30;2.63;;;2.10;;
7965;SDS011;4028;43.272;26.932;2022-09-14T15:14:56;3.95;;;2.17;;
7965;SDS011;4028;43.272;26.932;2022-09-14T15:17:22;2.55;;;2.10;;
7965;SDS011;4028;43.272;26.932;2022-09-14T15:19:48;3.65;;;2.22;;
7965;SDS011;4028;43.272;26.932;2022-09-14T15:22:13;5.00;;;2.10;;
7965;SDS011;4028;43.272;26.932;2022-09-14T15:24:39;3.08;;;2.40;;
7965;SDS011;4028;43.272;26.932;2022-09-14T15:27:05;2.30;;;2.08;;
7965;SDS011;4028;43.272;26.932;2022-09-14T15:29:30;3.22;;;2.00;;
7965;SDS011;4028;43.272;26.932;2022-09-14T15:31:56;2.30;;;1.90;;
7965;SDS011;4028;43.272;26.932;2022-09-14T15:34:21;3.72;;;1.98;;
7965;SDS011;4028;43.272;26.932;2022-09-14T15:36:48;2.40;;;2.05;;
7965;SDS011;4028;43.272;26.932;2022-09-14T15:39:16;3.08;;;2.15;;
7965;SDS011;4028;43.272;26.932;2022-09-14T15:41:44;2.50;;;2.30;;
7965;SDS011;4028;43.272;26.932;2022-09-14T15:44:10;3.97;;;2.20;;
7965;SDS011;4028;43.272;26.932;2022-09-14T15:46:36;6.57;;;2.10;;
7965;SDS011;4028;43.272;26.932;2022-09-14T15:49:06;4.03;;;3.05;;
7965;SDS011;4028;43.272;26.932;2022-09-14T15:51:35;2.83;;;1.98;;
7965;SDS011;4028;43.272;26.932;2022-09-14T15:54:01;8.30;;;2.03;;
7965;SDS011;4028;43.272;26.932;2022-09-14T15:56:27;3.38;;;1.98;;
7965;SDS011;4028;43.272;26.932;2022-09-14T15:58:52;5.00;;;2.40;;
7965;SDS011;4028;43.272;26.932;2022-09-14T16:01:21;3.38;;;2.65;;
7965;SDS011;4028;43.272;26.932;2022-09-14T16:03:46;4.13;;;3.72;;
7965;SDS011;4028;43.272;26.932;2022-09-14T16:06:12;5.95;;;3.17;;
7965;SDS011;4028;43.272;26.932;2022-09-14T16:08:39;4.68;;;3.15;;
7965;SDS011;4028;43.272;26.932;2022-09-14T16:11:05;6.00;;;3.65;;
7965;SDS011;4028;43.272;26.932;2022-09-14T16:13:33;6.38;;;3.47;;
7965;SDS011;4028;43.272;26.932;2022-09-14T16:16:03;4.55;;;3.60;;
7965;SDS011;4028;43.272;26.932;2022-09-14T16:18:29;7.22;;;3.42;;
7965;SDS011;4028;43.272;26.932;2022-09-14T16:20:54;4.35;;;2.60;;
7965;SDS011;4028;43.272;26.932;2022-09-14T16:23:20;5.75;;;2.88;;
7965;SDS011;4028;43.272;26.932;2022-09-14T16:25:46;4.75;;;3.15;;
7965;SDS011;4028;43.272;26.932;2022-09-14T16:28:11;8.10;;;3.15;;
7965;SDS011;4028;43.272;26.932;2022-09-14T16:30:36;7.43;;;3.13;;
7965;SDS011;4028;43.272;26.932;2022-09-14T16:33:02;6.60;;;2.83;;
7965;SDS011;4028;43.272;26.932;2022-09-14T16:35:27;6.35;;;2.97;;
7965;SDS011;4028;43.272;26.932;2022-09-14T16:37:53;6.45;;;3.65;;
7965;SDS011;4028;43.272;26.932;2022-09-14T16:40:18;3.83;;;3.10;;
7965;SDS011;4028;43.272;26.932;2022-09-14T16:42:44;5.53;;;3.53;;
7965;SDS011;4028;43.272;26.932;2022-09-14T16:45:12;4.70;;;3.25;;
7965;SDS011;4028;43.272;26.932;2022-09-14T16:47:37;3.97;;;3.10;;
7965;SDS011;4028;43.272;26.932;2022-09-14T16:50:03;4.68;;;3.17;;
7965;SDS011;4028;43.272;26.932;2022-09-14T16:52:29;6.05;;;3.15;;
7965;SDS011;4028;43.272;26.932;2022-09-14T16:54:55;5.57;;;3.38;;
7965;SDS011;4028;43.272;26.932;2022-09-14T16:57:20;3.83;;;3.20;;
7965;SDS011;4028;43.272;26.932;2022-09-14T16:59:46;5.55;;;4.20;;
7965;SDS011;4028;43.272;26.932;2022-09-14T17:02:11;9.27;;;3.78;;
7965;SDS011;4028;43.272;26.932;2022-09-14T17:04:37;4.18;;;3.40;;
7965;SDS011;4028;43.272;26.932;2022-09-14T17:07:02;10.57;;;3.83;;
7965;SDS011;4028;43.272;26.932;2022-09-14T17:09:28;8.30;;;3.30;;
7965;SDS011;4028;43.272;26.932;2022-09-14T17:11:56;10.02;;;4.00;;
7965;SDS011;4028;43.272;26.932;2022-09-14T17:14:25;7.90;;;3.50;;
7965;SDS011;4028;43.272;26.932;2022-09-14T17:16:55;5.43;;;3.50;;
7965;SDS011;4028;43.272;26.932;2022-09-14T17:19:22;4.47;;;3.38;;
7965;SDS011;4028;43.272;26.932;2022-09-14T17:21:47;3.70;;;3.20;;
7965;SDS011;4028;43.272;26.932;2022-09-14T17:24:14;5.80;;;3.75;;
7965;SDS011;4028;43.272;26.932;2022-09-14T17:26:41;7.18;;;4.10;;
7965;SDS011;4028;43.272;26.932;2022-09-14T17:29:07;4.10;;;3.10;;
7965;SDS011;4028;43.272;26.932;2022-09-14T17:31:35;9.23;;;3.60;;
7965;SDS011;4028;43.272;26.932;2022-09-14T17:34:03;4.05;;;3.10;;
7965;SDS011;4028;43.272;26.932;2022-09-14T17:36:30;5.15;;;4.20;;
7965;SDS011;4028;43.272;26.932;2022-09-14T17:38:56;8.52;;;4.97;;
7965;SDS011;4028;43.272;26.932;2022-09-14T17:41:24;5.55;;;3.75;;
7965;SDS011;4028;43.272;26.932;2022-09-14T17:43:56;3.80;;;3.25;;
7965;SDS011;4028;43.272;26.932;2022-09-14T17:46:23;6.07;;;3.60;;
7965;SDS011;4028;43.272;26.932;2022-09-14T17:48:49;4.07;;;2.83;;
7965;SDS011;4028;43.272;26.932;2022-09-14T17:51:25;7.60;;;3.63;;
7965;SDS011;4028;43.272;26.932;2022-09-14T17:53:52;5.15;;;3.75;;
7965;SDS011;4028;43.272;26.932;2022-09-14T17:56:20;4.50;;;3.25;;
7965;SDS011;4028;43.272;26.932;2022-09-14T17:58:47;4.95;;;3.30;;
7965;SDS011;4028;43.272;26.932;2022-09-14T18:01:21;4.75;;;4.10;;
7965;SDS011;4028;43.272;26.932;2022-09-14T18:03:54;7.30;;;4.03;;
7965;SDS011;4028;43.272;26.932;2022-09-14T18:06:24;6.05;;;3.88;;
7965;SDS011;4028;43.272;26.932;2022-09-14T18:08:57;6.35;;;4.40;;
7965;SDS011;4028;43.272;26.932;2022-09-14T18:11:24;5.85;;;4.40;;
7965;SDS011;4028;43.272;26.932;2022-09-14T18:13:50;7.93;;;4.00;;
7965;SDS011;4028;43.272;26.932;2022-09-14T18:16:16;5.45;;;4.10;;
7965;SDS011;4028;43.272;26.932;2022-09-14T18:18:43;8.68;;;4.60;;